createdAt,value
2018-05-06T00:00:48.963Z,3.97
2018-05-06T00:03:17.228Z,3.97
2018-05-06T00:05:45.470Z,4.40
2018-05-06T00:08:13.038Z,4.17
2018-05-06T00:10:40.535Z,4.00
2018-05-06T00:13:08.264Z,3.93
2018-05-06T00:15:35.760Z,4.50
2018-05-06T00:18:03.216Z,3.90
2018-05-06T00:20:30.801Z,4.27
2018-05-06T00:22:59.348Z,4.60
2018-05-06T00:25:27.021Z,4.97
2018-05-06T00:27:56.068Z,4.90
2018-05-06T00:30:23.622Z,4.20
2018-05-06T00:32:51.864Z,4.33
2018-05-06T00:35:19.380Z,4.10
2018-05-06T00:37:46.880Z,4.43
2018-05-06T00:40:14.341Z,4.40
2018-05-06T00:42:41.842Z,4.03
2018-05-06T00:45:09.313Z,5.23
2018-05-06T00:47:36.925Z,3.57
2018-05-06T00:50:04.379Z,3.93
2018-05-06T00:52:31.967Z,4.40
2018-05-06T00:54:59.655Z,4.47
2018-05-06T00:57:27.294Z,4.33
2018-05-06T00:59:55.285Z,4.73
2018-05-06T01:02:22.759Z,4.90
2018-05-06T01:04:50.371Z,4.60
2018-05-06T01:07:17.831Z,4.93
2018-05-06T01:09:45.317Z,4.17
2018-05-06T01:12:12.826Z,4.47
2018-05-06T01:14:41.490Z,5.10
2018-05-06T01:17:09.045Z,4.67
2018-05-06T01:19:37.032Z,4.30
2018-05-06T01:22:04.521Z,4.10
2018-05-06T01:24:32.797Z,4.60
2018-05-06T01:27:00.289Z,4.53
2018-05-06T01:29:29.196Z,3.77
2018-05-06T01:31:57.218Z,4.07
2018-05-06T01:34:24.642Z,3.80
2018-05-06T01:36:52.300Z,3.90
2018-05-06T01:39:20.481Z,4.40
2018-05-06T01:41:48.020Z,4.00
2018-05-06T01:44:16.323Z,3.77
2018-05-06T01:46:43.813Z,4.20
2018-05-06T01:49:11.283Z,4.40
2018-05-06T01:51:38.797Z,4.40
2018-05-06T01:54:06.318Z,4.50
2018-05-06T01:56:34.422Z,4.07
2018-05-06T01:59:02.658Z,4.33
2018-05-06T02:01:30.335Z,4.37
2018-05-06T02:03:57.817Z,3.50
2018-05-06T02:06:25.303Z,4.13
2018-05-06T02:08:52.776Z,4.17
2018-05-06T02:11:20.370Z,3.30
2018-05-06T02:13:47.844Z,3.77
2018-05-06T02:16:15.411Z,3.33
2018-05-06T02:18:42.952Z,3.67
2018-05-06T02:21:10.517Z,4.13
2018-05-06T02:23:38.147Z,3.50
2018-05-06T02:26:05.615Z,3.30
2018-05-06T02:28:33.163Z,3.70
2018-05-06T02:31:01.582Z,3.50
2018-05-06T02:33:29.137Z,3.30
2018-05-06T02:35:56.644Z,3.10
2018-05-06T02:38:24.235Z,3.33
2018-05-06T02:40:51.827Z,3.67
2018-05-06T02:43:20.109Z,4.00
2018-05-06T02:45:48.878Z,3.23
2018-05-06T02:48:17.168Z,3.13
2018-05-06T02:50:45.944Z,3.73
2018-05-06T02:53:13.509Z,3.70
2018-05-06T02:55:40.938Z,3.20
2018-05-06T02:58:08.400Z,3.10
2018-05-06T03:00:35.971Z,3.47
2018-05-06T03:03:03.479Z,3.73
2018-05-06T03:05:31.167Z,3.60
2018-05-06T03:07:58.660Z,3.43
2018-05-06T03:10:26.472Z,3.80
2018-05-06T03:12:54.006Z,3.43
2018-05-06T03:15:21.449Z,3.50
2018-05-06T03:17:48.913Z,3.67
2018-05-06T03:20:16.449Z,3.73
2018-05-06T03:22:43.908Z,4.10
2018-05-06T03:25:12.160Z,3.33
2018-05-06T03:27:41.285Z,3.40
2018-05-06T03:30:09.567Z,3.30
2018-05-06T03:32:37.121Z,3.70
2018-05-06T03:35:04.986Z,3.33
2018-05-06T03:37:32.515Z,4.13
2018-05-06T03:39:59.992Z,3.30
2018-05-06T03:42:27.715Z,3.23
2018-05-06T03:44:55.187Z,3.23
2018-05-06T03:47:22.746Z,3.17
2018-05-06T03:49:50.841Z,3.50
2018-05-06T03:52:18.388Z,3.60
2018-05-06T03:54:46.167Z,3.47
2018-05-06T03:57:13.865Z,3.87
2018-05-06T03:59:41.600Z,4.03
2018-05-06T04:02:09.040Z,4.00
2018-05-06T04:04:36.520Z,4.20
2018-05-06T04:07:05.054Z,3.60
2018-05-06T04:09:32.475Z,4.07
2018-05-06T04:12:00.066Z,3.90
2018-05-06T04:14:28.491Z,4.60
2018-05-06T04:16:55.970Z,4.17
2018-05-06T04:19:23.544Z,3.80
2018-05-06T04:21:51.043Z,4.10
2018-05-06T04:24:18.517Z,3.90
2018-05-06T04:26:47.800Z,3.97
2018-05-06T04:29:16.049Z,3.00
2018-05-06T04:31:43.547Z,4.27
2018-05-06T04:34:11.033Z,3.30
2018-05-06T04:36:39.286Z,4.20
2018-05-06T04:39:06.916Z,3.40
2018-05-06T04:41:35.100Z,3.90
2018-05-06T04:44:02.601Z,3.43
2018-05-06T04:46:30.261Z,3.80
2018-05-06T04:48:57.799Z,3.40
2018-05-06T04:51:25.276Z,4.13
2018-05-06T04:53:53.164Z,4.77
2018-05-06T04:56:20.594Z,3.90
2018-05-06T04:58:48.879Z,3.70
2018-05-06T05:01:16.355Z,3.43
2018-05-06T05:03:43.926Z,3.40
2018-05-06T05:06:11.417Z,3.87
2018-05-06T05:08:38.970Z,3.10
2018-05-06T05:11:06.473Z,3.20
2018-05-06T05:13:34.015Z,3.10
2018-05-06T05:16:01.526Z,3.40
2018-05-06T05:18:29.700Z,3.83
2018-05-06T05:20:57.236Z,3.37
2018-05-06T05:23:25.377Z,3.70
2018-05-06T05:25:52.956Z,2.97
2018-05-06T05:28:21.235Z,3.03
2018-05-06T05:30:49.579Z,3.10
2018-05-06T05:33:17.089Z,3.27
2018-05-06T05:35:44.619Z,3.50
2018-05-06T05:38:12.246Z,3.87
2018-05-06T05:40:39.826Z,3.47
2018-05-06T05:43:07.306Z,2.97
2018-05-06T05:45:35.067Z,2.63
2018-05-06T05:48:02.660Z,3.43
2018-05-06T05:50:30.219Z,2.97
2018-05-06T05:52:57.731Z,3.13
2018-05-06T05:55:25.525Z,3.10
2018-05-06T05:57:53.231Z,3.03
2018-05-06T06:00:21.386Z,2.70
2018-05-06T06:02:48.933Z,2.90
2018-05-06T06:05:16.562Z,2.43
2018-05-06T06:07:44.616Z,2.57
2018-05-06T06:10:12.083Z,2.77
2018-05-06T06:12:40.295Z,3.23
2018-05-06T06:15:07.854Z,3.33
2018-05-06T06:17:35.349Z,3.23
2018-05-06T06:20:02.881Z,3.37
2018-05-06T06:22:30.430Z,2.57
2018-05-06T06:24:58.022Z,2.90
2018-05-06T06:27:25.718Z,2.83
2018-05-06T06:29:53.218Z,2.60
2018-05-06T06:32:20.743Z,2.40
2018-05-06T06:34:48.331Z,2.60
2018-05-06T06:37:15.745Z,2.93
2018-05-06T06:39:43.428Z,2.37
2018-05-06T06:42:11.275Z,2.30
2018-05-06T06:44:38.840Z,2.10
2018-05-06T06:47:06.397Z,2.20
2018-05-06T06:49:33.987Z,2.43
2018-05-06T06:52:03.270Z,2.60
2018-05-06T06:54:31.536Z,2.67
2018-05-06T06:56:59.255Z,2.70
2018-05-06T06:59:26.796Z,2.33
2018-05-06T07:01:54.298Z,2.77
2018-05-06T07:04:21.875Z,2.20
2018-05-06T07:06:49.635Z,1.90
2018-05-06T07:09:17.143Z,2.30
2018-05-06T07:11:44.684Z,2.53
2018-05-06T07:14:12.205Z,2.10
2018-05-06T07:16:39.715Z,2.60
2018-05-06T07:19:07.232Z,2.67
2018-05-06T07:21:34.728Z,1.83
2018-05-06T07:24:03.320Z,2.07
2018-05-06T07:26:30.848Z,1.93
2018-05-06T07:28:58.607Z,2.50
2018-05-06T07:31:26.538Z,2.40
2018-05-06T07:33:54.832Z,2.53
2018-05-06T07:36:22.342Z,1.83
2018-05-06T07:38:49.865Z,2.17
2018-05-06T07:41:17.355Z,1.93
2018-05-06T07:43:44.921Z,2.20
2018-05-06T07:46:13.212Z,2.30
2018-05-06T07:48:40.758Z,1.70
2018-05-06T07:51:08.259Z,1.63
2018-05-06T07:53:35.795Z,2.10
2018-05-06T07:56:03.592Z,1.87
2018-05-06T07:58:31.406Z,2.27
2018-05-06T08:00:58.908Z,2.00
2018-05-06T08:03:26.418Z,2.57
2018-05-06T08:05:53.967Z,2.13
2018-05-06T08:08:21.531Z,2.07
2018-05-06T08:10:49.926Z,1.90
2018-05-06T08:13:17.314Z,1.90
2018-05-06T08:15:44.831Z,2.23
2018-05-06T08:18:12.447Z,2.60
2018-05-06T08:20:40.724Z,2.00
2018-05-06T08:23:08.845Z,2.47
2018-05-06T08:25:36.403Z,2.30
2018-05-06T08:28:04.219Z,1.90
2018-05-06T08:30:32.467Z,2.57
2018-05-06T08:32:59.993Z,1.80
2018-05-06T08:35:28.341Z,2.20
2018-05-06T08:37:55.803Z,2.10
2018-05-06T08:40:24.079Z,2.13
2018-05-06T08:42:51.672Z,1.73
2018-05-06T08:45:19.227Z,2.20
2018-05-06T08:47:46.749Z,2.23
2018-05-06T08:50:14.241Z,2.43
2018-05-06T08:52:42.682Z,2.37
2018-05-06T08:55:10.764Z,1.93
2018-05-06T08:57:38.325Z,2.73
2018-05-06T09:00:05.879Z,2.50
2018-05-06T09:02:33.715Z,1.90
2018-05-06T09:05:01.921Z,2.30
2018-05-06T09:07:29.419Z,1.97
2018-05-06T09:09:56.987Z,2.70
2018-05-06T09:12:24.692Z,2.10
2018-05-06T09:14:52.230Z,2.43
2018-05-06T09:17:20.596Z,2.23
2018-05-06T09:19:48.068Z,2.67
2018-05-06T09:22:15.492Z,2.03
2018-05-06T09:24:43.122Z,2.30
2018-05-06T09:27:10.760Z,2.57
2018-05-06T09:29:38.334Z,2.03
2018-05-06T09:32:06.713Z,1.87
2018-05-06T09:34:35.077Z,4.23
2018-05-06T09:37:02.586Z,2.50
2018-05-06T09:39:30.860Z,1.70
2018-05-06T09:41:58.373Z,2.47
2018-05-06T09:44:25.901Z,2.00
2018-05-06T09:46:54.128Z,2.63
2018-05-06T09:49:21.665Z,2.00
2018-05-06T09:51:49.198Z,1.90
2018-05-06T09:54:17.501Z,1.63
2018-05-06T09:56:45.007Z,1.70
2018-05-06T09:59:12.562Z,2.10
2018-05-06T10:01:40.207Z,2.57
2018-05-06T10:04:08.822Z,1.87
2018-05-06T10:06:36.267Z,1.70
2018-05-06T10:09:04.826Z,1.87
2018-05-06T10:11:32.316Z,1.67
2018-05-06T10:13:59.803Z,2.63
2018-05-06T10:16:27.480Z,1.60
2018-05-06T10:18:55.818Z,1.90
2018-05-06T10:21:23.315Z,1.73
2018-05-06T10:23:50.771Z,2.40
2018-05-06T10:26:20.820Z,1.97
2018-05-06T10:28:48.419Z,1.30
2018-05-06T10:31:16.097Z,1.50
2018-05-06T10:33:44.460Z,1.37
2018-05-06T10:36:12.739Z,1.60
2018-05-06T10:38:40.249Z,1.80
2018-05-06T10:41:07.755Z,1.47
2018-05-06T10:43:36.132Z,1.57
2018-05-06T10:46:03.669Z,2.20
2018-05-06T10:48:31.918Z,1.57
2018-05-06T10:50:59.398Z,2.07
2018-05-06T10:53:26.918Z,1.63
2018-05-06T10:55:54.407Z,1.90
2018-05-06T10:58:21.907Z,1.77
2018-05-06T11:00:49.500Z,1.60
2018-05-06T11:03:17.012Z,1.57
2018-05-06T11:05:44.576Z,1.33
2018-05-06T11:08:12.156Z,1.50
2018-05-06T11:10:40.470Z,1.67
2018-05-06T11:13:08.151Z,1.60
2018-05-06T11:15:35.626Z,2.07
2018-05-06T11:18:03.883Z,3.07
2018-05-06T11:20:31.371Z,1.73
2018-05-06T11:22:58.900Z,1.67
2018-05-06T11:25:26.391Z,1.43
2018-05-06T11:27:54.042Z,1.73
2018-05-06T11:30:21.864Z,1.70
2018-05-06T11:32:49.753Z,1.57
2018-05-06T11:35:18.787Z,1.77
2018-05-06T11:37:46.248Z,1.60
2018-05-06T11:40:13.764Z,1.60
2018-05-06T11:42:41.285Z,1.20
2018-05-06T11:45:09.889Z,1.40
2018-05-06T11:47:38.165Z,2.10
2018-05-06T11:50:05.702Z,1.57
2018-05-06T11:52:34.099Z,1.10
2018-05-06T11:55:01.938Z,1.90
2018-05-06T11:57:29.616Z,1.57
2018-05-06T11:59:57.948Z,1.63
2018-05-06T12:02:25.523Z,1.37
2018-05-06T12:04:53.004Z,1.57
2018-05-06T12:07:21.359Z,1.60
2018-05-06T12:09:49.048Z,1.43
2018-05-06T12:12:16.529Z,1.87
2018-05-06T12:14:44.903Z,1.50
2018-05-06T12:17:12.456Z,1.53
2018-05-06T12:19:40.360Z,1.60
2018-05-06T12:22:07.972Z,1.43
2018-05-06T12:24:36.483Z,1.20
2018-05-06T12:27:04.066Z,1.53
2018-05-06T12:29:32.401Z,1.77
2018-05-06T12:32:00.007Z,1.60
2018-05-06T12:34:27.469Z,1.60
2018-05-06T12:36:54.960Z,1.57
2018-05-06T12:39:22.711Z,1.70
2018-05-06T12:41:50.257Z,1.30
2018-05-06T12:44:17.732Z,1.10
2018-05-06T12:46:46.008Z,1.53
2018-05-06T12:49:14.340Z,1.40
2018-05-06T12:51:41.995Z,1.40
2018-05-06T12:54:09.501Z,1.67
2018-05-06T12:56:36.996Z,1.43
2018-05-06T12:59:04.476Z,1.40
2018-05-06T13:01:32.117Z,1.93
2018-05-06T13:04:00.366Z,1.50
2018-05-06T13:06:27.887Z,1.40
2018-05-06T13:08:56.269Z,1.50
2018-05-06T13:11:23.816Z,1.50
2018-05-06T13:13:51.244Z,0.97
2018-05-06T13:16:18.767Z,1.40
2018-05-06T13:18:46.284Z,1.33
2018-05-06T13:21:13.844Z,1.07
2018-05-06T13:23:41.308Z,1.37
2018-05-06T13:26:08.992Z,1.40
2018-05-06T13:28:36.475Z,1.63
2018-05-06T13:31:04.044Z,1.50
2018-05-06T13:33:31.577Z,1.37
2018-05-06T13:35:59.750Z,1.40
2018-05-06T13:38:27.263Z,1.23
2018-05-06T13:40:54.733Z,1.20
2018-05-06T13:43:22.235Z,1.23
2018-05-06T13:45:50.565Z,1.20
2018-05-06T13:48:18.133Z,1.67
2018-05-06T13:50:45.735Z,1.27
2018-05-06T13:53:13.352Z,1.10
2018-05-06T13:55:40.865Z,1.30
2018-05-06T13:58:09.079Z,1.50
2018-05-06T14:00:38.046Z,1.20
2018-05-06T14:03:05.636Z,1.20
2018-05-06T14:05:33.844Z,1.50
2018-05-06T14:08:01.489Z,1.20
2018-05-06T14:10:29.754Z,1.30
2018-05-06T14:12:57.248Z,1.50
2018-05-06T14:15:24.809Z,1.60
2018-05-06T14:17:52.390Z,1.30
2018-05-06T14:20:19.927Z,1.70
2018-05-06T14:22:47.373Z,1.37
2018-05-06T14:25:14.962Z,1.10
2018-05-06T14:27:42.603Z,1.70
2018-05-06T14:30:10.119Z,1.83
2018-05-06T14:32:39.079Z,1.33
2018-05-06T14:35:06.598Z,1.83
2018-05-06T14:37:34.179Z,1.50
2018-05-06T14:40:01.720Z,1.20
2018-05-06T14:42:29.243Z,1.50
2018-05-06T14:44:56.737Z,1.63
2018-05-06T14:47:24.322Z,2.33
2018-05-06T14:49:51.788Z,1.47
2018-05-06T14:52:22.609Z,1.80
2018-05-06T14:54:50.062Z,1.97
2018-05-06T14:57:17.584Z,1.83
2018-05-06T14:59:45.127Z,2.10
2018-05-06T15:02:12.645Z,2.03
2018-05-06T15:04:40.196Z,2.03
2018-05-06T15:07:07.749Z,1.50
2018-05-06T15:09:39.090Z,1.40
2018-05-06T15:12:06.567Z,1.47
2018-05-06T15:14:34.109Z,1.60
2018-05-06T15:17:02.371Z,1.60
2018-05-06T15:19:29.971Z,1.77
2018-05-06T15:21:57.563Z,1.13
2018-05-06T15:24:25.076Z,1.87
2018-05-06T15:26:53.415Z,1.53
2018-05-06T15:29:21.024Z,1.40
2018-05-06T15:31:48.581Z,1.20
2018-05-06T15:34:16.167Z,1.90
2018-05-06T15:36:43.741Z,2.00
2018-05-06T15:39:12.240Z,1.13
2018-05-06T15:41:39.780Z,1.80
2018-05-06T15:44:07.302Z,1.40
2018-05-06T15:46:34.766Z,1.60
2018-05-06T15:49:02.257Z,1.80
2018-05-06T15:51:30.536Z,1.23
2018-05-06T15:53:58.020Z,1.60
2018-05-06T15:56:26.280Z,1.23
2018-05-06T15:58:53.823Z,1.20
2018-05-06T16:01:22.066Z,1.70
2018-05-06T16:03:49.540Z,1.37
2018-05-06T16:06:17.016Z,2.40
2018-05-06T16:08:44.529Z,1.27
2018-05-06T16:11:12.299Z,0.93
2018-05-06T16:13:40.540Z,1.20
2018-05-06T16:16:09.106Z,1.53
2018-05-06T16:18:37.353Z,0.90
2018-05-06T16:21:05.585Z,1.03
2018-05-06T16:23:33.059Z,1.27
2018-05-06T16:26:01.053Z,1.47
2018-05-06T16:28:28.534Z,1.77
2018-05-06T16:30:57.157Z,1.40
2018-05-06T16:33:24.887Z,1.07
2018-05-06T16:35:53.088Z,1.30
2018-05-06T16:38:21.248Z,1.30
2018-05-06T16:40:49.649Z,1.53
2018-05-06T16:43:17.969Z,1.40
2018-05-06T16:45:45.524Z,1.00
2018-05-06T16:48:12.941Z,0.97
2018-05-06T16:50:41.283Z,1.40
2018-05-06T16:53:08.849Z,1.57
2018-05-06T16:55:36.398Z,1.57
2018-05-06T16:58:03.998Z,1.60
2018-05-06T17:00:31.540Z,1.87
2018-05-06T17:02:59.036Z,1.50
2018-05-06T17:05:27.365Z,1.97
2018-05-06T17:07:56.447Z,1.60
2018-05-06T17:10:24.722Z,1.67
2018-05-06T17:12:52.277Z,1.60
2018-05-06T17:15:19.889Z,1.10
2018-05-06T17:17:47.447Z,1.83
2018-05-06T17:20:14.999Z,1.23
2018-05-06T17:22:42.603Z,1.60
2018-05-06T17:25:10.413Z,1.77
2018-05-06T17:27:38.000Z,1.07
2018-05-06T17:30:05.722Z,1.77
2018-05-06T17:32:33.198Z,1.37
2018-05-06T17:35:00.723Z,2.20
2018-05-06T17:37:28.305Z,2.30
2018-05-06T17:39:55.880Z,2.57
2018-05-06T17:42:23.555Z,2.00
2018-05-06T17:44:51.178Z,2.60
2018-05-06T17:47:18.667Z,2.13
2018-05-06T17:49:46.945Z,2.00
2018-05-06T17:52:14.550Z,2.13
2018-05-06T17:54:42.025Z,1.37
2018-05-06T17:57:09.553Z,1.60
2018-05-06T17:59:37.092Z,1.67
2018-05-06T18:02:04.670Z,2.30
2018-05-06T18:04:33.031Z,3.03
2018-05-06T18:07:00.546Z,3.17
2018-05-06T18:09:28.096Z,3.83
2018-05-06T18:11:56.496Z,3.87
2018-05-06T18:14:25.177Z,2.90
2018-05-06T18:16:53.107Z,2.93
2018-05-06T18:19:20.632Z,2.20
2018-05-06T18:21:49.155Z,1.90
2018-05-06T18:24:17.299Z,2.00
2018-05-06T18:26:45.570Z,1.80
2018-05-06T18:29:13.342Z,2.13
2018-05-06T18:31:40.860Z,1.90
2018-05-06T18:34:09.610Z,1.73
2018-05-06T18:36:38.289Z,1.70
2018-05-06T18:39:06.758Z,1.53
2018-05-06T18:41:35.825Z,2.00
2018-05-06T18:44:03.377Z,1.60
2018-05-06T18:46:30.939Z,4.70
2018-05-06T18:48:58.447Z,2.67
2018-05-06T18:51:26.032Z,2.70
2018-05-06T18:53:53.662Z,3.40
2018-05-06T18:56:22.055Z,2.60
2018-05-06T18:58:50.329Z,2.57
2018-05-06T19:01:17.962Z,3.17
2018-05-06T19:03:46.369Z,2.77
2018-05-06T19:06:14.165Z,2.80
2018-05-06T19:08:41.671Z,4.57
2018-05-06T19:11:09.211Z,3.93
2018-05-06T19:13:36.770Z,3.00
2018-05-06T19:16:05.051Z,3.47
2018-05-06T19:18:32.611Z,3.03
2018-05-06T19:21:00.259Z,2.13
2018-05-06T19:23:27.853Z,2.10
2018-05-06T19:25:55.400Z,2.40
2018-05-06T19:28:22.923Z,2.87
2018-05-06T19:30:50.616Z,2.80
2018-05-06T19:33:18.971Z,2.57
2018-05-06T19:35:46.511Z,2.87
2018-05-06T19:38:14.010Z,2.20
2018-05-06T19:40:43.252Z,3.23
2018-05-06T19:43:11.654Z,2.13
2018-05-06T19:45:39.305Z,2.70
2018-05-06T19:48:07.863Z,1.90
2018-05-06T19:50:36.298Z,2.00
2018-05-06T19:53:04.689Z,2.10
2018-05-06T19:55:32.124Z,2.80
2018-05-06T19:57:59.852Z,2.63
2018-05-06T20:00:27.321Z,2.57
2018-05-06T20:02:56.363Z,2.43
2018-05-06T20:05:23.911Z,2.07
2018-05-06T20:07:51.882Z,2.50
2018-05-06T20:10:19.522Z,2.43
2018-05-06T20:12:47.857Z,2.43
2018-05-06T20:15:16.637Z,2.77
2018-05-06T20:17:44.223Z,2.63
2018-05-06T20:20:11.787Z,3.33
2018-05-06T20:22:40.130Z,2.20
2018-05-06T20:25:07.544Z,2.63
2018-05-06T20:27:35.269Z,3.97
2018-05-06T20:30:03.450Z,2.97
2018-05-06T20:32:31.323Z,3.00
2018-05-06T20:34:59.878Z,2.87
2018-05-06T20:37:28.131Z,3.43
2018-05-06T20:39:55.841Z,2.80
2018-05-06T20:42:24.267Z,3.00
2018-05-06T20:44:51.845Z,2.97
2018-05-06T20:47:19.380Z,3.00
2018-05-06T20:49:46.946Z,4.00
2018-05-06T20:52:15.159Z,3.03
2018-05-06T20:54:42.686Z,3.43
2018-05-06T20:57:10.182Z,2.90
2018-05-06T20:59:37.943Z,2.90
2018-05-06T21:02:05.522Z,3.30
2018-05-06T21:04:33.105Z,2.53
2018-05-06T21:07:00.827Z,3.33
2018-05-06T21:09:30.210Z,2.97
2018-05-06T21:11:57.966Z,3.40
2018-05-06T21:14:25.379Z,2.70
2018-05-06T21:16:52.879Z,2.90
2018-05-06T21:19:20.432Z,3.27
2018-05-06T21:21:47.966Z,3.77
2018-05-06T21:24:15.453Z,3.10
2018-05-06T21:26:42.966Z,3.33
2018-05-06T21:29:10.553Z,4.63
2018-05-06T21:31:39.002Z,4.93
2018-05-06T21:34:06.472Z,3.80
2018-05-06T21:36:34.490Z,4.10
2018-05-06T21:39:01.992Z,5.03
2018-05-06T21:41:30.233Z,4.57
2018-05-06T21:43:57.976Z,3.60
2018-05-06T21:46:25.856Z,3.57
2018-05-06T21:48:53.349Z,4.17
2018-05-06T21:51:20.902Z,4.00
2018-05-06T21:53:49.041Z,4.23
2018-05-06T21:56:18.044Z,4.00
2018-05-06T21:58:46.428Z,4.50
2018-05-06T22:01:14.724Z,4.20
2018-05-06T22:03:42.194Z,4.10
2018-05-06T22:06:09.745Z,4.10
2018-05-06T22:08:37.613Z,3.73
2018-05-06T22:11:05.070Z,4.13
2018-05-06T22:13:33.016Z,4.43
2018-05-06T22:16:00.556Z,4.20
2018-05-06T22:18:28.029Z,4.03
2018-05-06T22:20:59.609Z,4.17
2018-05-06T22:23:27.101Z,3.70
2018-05-06T22:25:54.708Z,4.27
2018-05-06T22:28:23.020Z,4.20
2018-05-06T22:30:50.705Z,4.20
2018-05-06T22:33:18.995Z,4.23
2018-05-06T22:35:46.478Z,4.00
2018-05-06T22:38:14.080Z,5.43
2018-05-06T22:40:41.628Z,4.80
2018-05-06T22:43:09.096Z,4.20
2018-05-06T22:45:36.628Z,4.50
2018-05-06T22:48:04.201Z,5.40
2018-05-06T22:50:31.670Z,5.53
2018-05-06T22:52:59.228Z,5.10
2018-05-06T22:55:26.941Z,4.57
2018-05-06T22:57:54.656Z,5.00
2018-05-06T23:00:22.113Z,5.70
2018-05-06T23:02:49.610Z,4.40
2018-05-06T23:05:17.934Z,5.10
2018-05-06T23:07:45.398Z,4.80
2018-05-06T23:10:12.860Z,4.50
2018-05-06T23:12:41.986Z,4.87
2018-05-06T23:15:09.606Z,6.00
2018-05-06T23:17:37.173Z,5.30
2018-05-06T23:20:05.865Z,5.27
2018-05-06T23:22:33.323Z,4.63
2018-05-06T23:25:00.933Z,5.63
2018-05-06T23:27:28.429Z,4.17
2018-05-06T23:29:55.936Z,4.80
2018-05-06T23:32:23.580Z,4.97
2018-05-06T23:34:51.052Z,5.60
2018-05-06T23:37:18.628Z,5.07
2018-05-06T23:39:46.231Z,5.43
2018-05-06T23:42:13.695Z,5.00
2018-05-06T23:44:41.243Z,5.70
2018-05-06T23:47:08.736Z,5.13
2018-05-06T23:49:37.055Z,4.93
2018-05-06T23:52:04.494Z,5.17
2018-05-06T23:54:32.823Z,4.93
2018-05-06T23:57:00.348Z,6.37
2018-05-06T23:59:27.903Z,6.13
